createdAt,value
2022-11-16T00:00:42.454Z,6.355896
2022-11-16T00:01:51.275Z,6.345825
2022-11-16T00:02:59.881Z,6.305542
2022-11-16T00:04:09.540Z,6.27533
2022-11-16T00:05:17.228Z,6.235046
2022-11-16T00:06:26.862Z,6.235046
2022-11-16T00:07:36.685Z,6.255188
2022-11-16T00:08:44.300Z,6.265259
2022-11-16T00:09:53.957Z,6.235046
2022-11-16T00:11:03.654Z,6.235046
2022-11-16T00:12:13.333Z,6.235046
2022-11-16T00:13:23.018Z,6.204834
2022-11-16T00:14:32.674Z,6.204834
2022-11-16T00:15:42.341Z,6.204834
2022-11-16T00:16:52.045Z,6.204834
2022-11-16T00:17:59.705Z,6.194763
2022-11-16T00:19:09.411Z,6.194763
2022-11-16T00:20:18.081Z,6.174622
2022-11-16T00:21:26.742Z,6.174622
2022-11-16T00:22:36.455Z,6.174622
2022-11-16T00:23:44.124Z,6.164551
2022-11-16T00:24:52.839Z,6.174622
2022-11-16T00:26:02.481Z,6.194763
2022-11-16T00:27:10.158Z,6.204834
2022-11-16T00:28:19.853Z,6.235046
2022-11-16T00:29:28.565Z,6.224976
2022-11-16T00:30:37.265Z,6.235046
2022-11-16T00:31:46.939Z,6.235046
2022-11-16T00:32:55.606Z,6.255188
2022-11-16T00:34:05.300Z,6.224976
2022-11-16T00:35:14.973Z,6.204834
2022-11-16T00:36:23.649Z,6.174622
2022-11-16T00:37:33.319Z,6.144409
2022-11-16T00:38:41.992Z,6.124268
2022-11-16T00:39:49.684Z,6.174622
2022-11-16T00:40:59.385Z,6.164551
2022-11-16T00:42:08.024Z,6.164551
2022-11-16T00:43:16.692Z,6.174622
2022-11-16T00:44:26.371Z,6.164551
2022-11-16T00:45:35.064Z,6.174622
2022-11-16T00:46:44.764Z,6.204834
2022-11-16T00:47:59.234Z,6.194763
2022-11-16T00:49:04.080Z,6.204834
2022-11-16T00:50:13.747Z,6.224976
2022-11-16T00:51:22.495Z,6.255188
2022-11-16T00:52:31.153Z,6.235046
2022-11-16T00:53:40.818Z,6.265259
2022-11-16T00:54:48.480Z,6.27533
2022-11-16T00:55:58.148Z,6.27533
2022-11-16T00:57:07.910Z,6.27533
2022-11-16T00:58:16.562Z,6.295471
2022-11-16T00:59:26.237Z,6.305542
2022-11-16T01:00:35.902Z,6.325684
2022-11-16T01:01:44.634Z,6.305542
2022-11-16T01:02:54.276Z,6.305542
2022-11-16T01:04:03.979Z,6.27533
2022-11-16T01:05:13.646Z,6.295471
2022-11-16T01:06:22.324Z,6.265259
2022-11-16T01:07:30.147Z,6.27533
2022-11-16T01:08:39.844Z,6.255188
2022-11-16T01:09:47.497Z,6.255188
2022-11-16T01:10:56.213Z,6.255188
2022-11-16T01:12:05.899Z,6.27533
2022-11-16T01:13:13.591Z,6.305542
2022-11-16T01:14:23.303Z,6.355896
2022-11-16T01:15:31.976Z,6.376038
2022-11-16T01:16:41.643Z,6.40625
2022-11-16T01:17:51.311Z,6.416321
2022-11-16T01:18:57.969Z,6.416321
2022-11-16T01:20:07.701Z,6.436462
2022-11-16T01:21:16.376Z,6.436462
2022-11-16T01:22:25.028Z,6.436462
2022-11-16T01:23:34.696Z,6.456604
2022-11-16T01:24:43.369Z,6.436462
2022-11-16T01:25:53.055Z,6.456604
2022-11-16T01:27:01.741Z,6.456604
2022-11-16T01:28:10.421Z,6.456604
2022-11-16T01:29:20.132Z,6.456604
2022-11-16T01:30:29.773Z,6.506958
2022-11-16T01:31:38.472Z,6.506958
2022-11-16T01:32:48.140Z,6.517029
2022-11-16T01:33:56.820Z,6.53717
2022-11-16T01:35:06.488Z,6.567383
2022-11-16T01:36:15.249Z,6.597595
2022-11-16T01:37:22.863Z,6.597595
2022-11-16T01:38:31.785Z,6.617737
2022-11-16T01:39:40.189Z,6.637878
2022-11-16T01:40:49.852Z,6.65802
2022-11-16T01:41:59.516Z,6.688232
2022-11-16T01:43:08.204Z,6.688232
2022-11-16T01:44:17.872Z,6.718445
2022-11-16T01:45:27.555Z,6.718445
2022-11-16T01:46:36.220Z,6.768799
2022-11-16T01:47:45.894Z,6.748657
2022-11-16T01:48:53.564Z,6.768799
2022-11-16T01:50:02.235Z,6.768799
2022-11-16T01:51:11.914Z,6.738586
2022-11-16T01:52:19.578Z,6.768799
2022-11-16T01:53:28.414Z,6.77887
2022-11-16T01:54:37.220Z,6.78894
2022-11-16T01:55:44.915Z,6.78894
2022-11-16T01:56:54.584Z,6.78894
2022-11-16T01:58:02.243Z,6.809082
2022-11-16T01:59:10.893Z,6.839294
2022-11-16T02:00:20.577Z,6.819153
2022-11-16T02:01:28.272Z,6.809082
2022-11-16T02:02:37.912Z,6.819153
2022-11-16T02:03:47.586Z,6.809082
2022-11-16T02:04:57.271Z,6.819153
2022-11-16T02:06:07.065Z,6.839294
2022-11-16T02:07:15.807Z,6.819153
2022-11-16T02:08:24.435Z,6.819153
2022-11-16T02:09:34.136Z,6.839294
2022-11-16T02:10:41.811Z,6.839294
2022-11-16T02:11:51.492Z,6.819153
2022-11-16T02:13:00.161Z,6.809082
2022-11-16T02:14:07.821Z,6.839294
2022-11-16T02:15:17.513Z,6.839294
2022-11-16T02:16:26.203Z,6.839294
2022-11-16T02:17:35.930Z,6.869507
2022-11-16T02:18:45.573Z,6.869507
2022-11-16T02:19:53.299Z,6.849365
2022-11-16T02:21:02.990Z,6.869507
2022-11-16T02:22:11.704Z,6.849365
2022-11-16T02:23:19.398Z,6.839294
2022-11-16T02:24:29.086Z,6.839294
2022-11-16T02:25:37.756Z,6.819153
2022-11-16T02:26:47.432Z,6.819153
2022-11-16T02:27:57.107Z,6.819153
2022-11-16T02:29:05.823Z,6.809082
2022-11-16T02:30:15.492Z,6.839294
2022-11-16T02:31:24.158Z,6.839294
2022-11-16T02:32:31.832Z,6.849365
2022-11-16T02:33:41.537Z,6.849365
2022-11-16T02:34:50.224Z,6.869507
2022-11-16T02:35:57.896Z,6.869507
2022-11-16T02:37:07.572Z,6.889648
2022-11-16T02:38:16.284Z,6.889648
2022-11-16T02:39:25.954Z,6.929932
2022-11-16T02:40:35.651Z,6.929932
2022-11-16T02:41:45.342Z,6.929932
2022-11-16T02:42:55.004Z,6.960144
2022-11-16T02:44:03.674Z,6.970215
2022-11-16T02:45:12.386Z,6.960144
2022-11-16T02:46:22.170Z,6.960144
2022-11-16T02:47:30.828Z,6.950073
2022-11-16T02:48:40.509Z,6.960144
2022-11-16T02:49:49.263Z,6.960144
2022-11-16T02:50:57.890Z,6.950073
2022-11-16T02:52:08.041Z,6.929932
2022-11-16T02:53:19.268Z,6.929932
2022-11-16T02:54:27.921Z,6.929932
2022-11-16T02:55:37.595Z,6.879578
2022-11-16T02:56:46.264Z,6.869507
2022-11-16T02:57:56.093Z,6.839294
2022-11-16T02:59:04.754Z,6.839294
2022-11-16T03:00:15.489Z,6.809082
2022-11-16T03:01:25.263Z,6.77887
2022-11-16T03:02:34.885Z,6.77887
2022-11-16T03:03:44.598Z,6.768799
2022-11-16T03:04:54.273Z,6.768799
2022-11-16T03:06:03.965Z,6.768799
2022-11-16T03:07:13.683Z,6.738586
2022-11-16T03:08:22.279Z,6.698303
2022-11-16T03:09:31.017Z,6.688232
2022-11-16T03:10:40.686Z,6.688232
2022-11-16T03:11:49.384Z,6.688232
2022-11-16T03:12:57.069Z,6.668091
2022-11-16T03:14:06.741Z,6.65802
2022-11-16T03:15:14.421Z,6.637878
2022-11-16T03:16:23.093Z,6.627808
2022-11-16T03:17:32.775Z,6.597595
2022-11-16T03:18:40.437Z,6.587524
2022-11-16T03:19:50.089Z,6.587524
2022-11-16T03:20:58.790Z,6.587524
2022-11-16T03:22:07.421Z,6.587524
2022-11-16T03:23:17.092Z,6.597595
2022-11-16T03:24:24.748Z,6.597595
2022-11-16T03:25:34.408Z,6.597595
2022-11-16T03:26:44.104Z,6.597595
2022-11-16T03:27:52.763Z,6.587524
2022-11-16T03:29:02.448Z,6.567383
2022-11-16T03:30:11.116Z,6.557312
2022-11-16T03:31:21.809Z,6.567383
2022-11-16T03:32:31.539Z,6.557312
2022-11-16T03:33:39.269Z,6.53717
2022-11-16T03:34:47.939Z,6.53717
2022-11-16T03:35:57.628Z,6.517029
2022-11-16T03:37:07.307Z,6.517029
2022-11-16T03:38:16.976Z,6.517029
2022-11-16T03:39:25.630Z,6.517029
2022-11-16T03:40:35.293Z,6.53717
2022-11-16T03:41:44.964Z,6.517029
2022-11-16T03:42:52.610Z,6.53717
2022-11-16T03:44:01.308Z,6.53717
2022-11-16T03:45:10.960Z,6.517029
2022-11-16T03:46:19.618Z,6.53717
2022-11-16T03:47:29.283Z,6.517029
2022-11-16T03:48:37.943Z,6.517029
2022-11-16T03:49:46.639Z,6.517029
2022-11-16T03:50:56.313Z,6.506958
2022-11-16T03:52:01.958Z,6.517029
2022-11-16T03:53:11.630Z,6.517029
2022-11-16T03:54:20.279Z,6.486816
2022-11-16T03:55:28.953Z,6.506958
2022-11-16T03:56:38.631Z,6.446533
2022-11-16T03:57:48.285Z,6.436462
2022-11-16T03:58:57.944Z,6.416321
2022-11-16T04:00:06.597Z,6.386108
2022-11-16T04:01:15.471Z,6.355896
2022-11-16T04:02:25.074Z,6.355896
2022-11-16T04:03:33.725Z,6.345825
2022-11-16T04:04:42.388Z,6.345825
2022-11-16T04:05:52.046Z,6.355896
2022-11-16T04:07:00.780Z,6.376038
2022-11-16T04:08:10.419Z,6.355896
2022-11-16T04:09:19.127Z,6.345825
2022-11-16T04:10:26.759Z,6.325684
2022-11-16T04:11:36.424Z,6.345825
2022-11-16T04:12:46.105Z,6.355896
2022-11-16T04:13:55.787Z,6.355896
2022-11-16T04:15:06.449Z,6.325684
2022-11-16T04:16:14.097Z,6.345825
2022-11-16T04:17:23.770Z,6.345825
2022-11-16T04:18:32.724Z,6.345825
2022-11-16T04:19:41.196Z,6.355896
2022-11-16T04:20:51.867Z,6.386108
2022-11-16T04:21:59.515Z,6.40625
2022-11-16T04:23:08.167Z,6.386108
2022-11-16T04:24:17.868Z,6.376038
2022-11-16T04:25:27.576Z,6.386108
2022-11-16T04:26:37.279Z,6.376038
2022-11-16T04:27:45.980Z,6.386108
2022-11-16T04:28:55.646Z,6.40625
2022-11-16T04:30:05.339Z,6.416321
2022-11-16T04:31:12.992Z,6.436462
2022-11-16T04:32:21.673Z,6.456604
2022-11-16T04:33:31.393Z,6.456604
2022-11-16T04:34:39.095Z,6.456604
2022-11-16T04:35:48.781Z,6.446533
2022-11-16T04:36:57.437Z,6.476746
2022-11-16T04:38:05.098Z,6.456604
2022-11-16T04:39:14.771Z,6.456604
2022-11-16T04:40:22.411Z,6.446533
2022-11-16T04:41:31.243Z,6.436462
2022-11-16T04:42:40.915Z,6.416321
2022-11-16T04:43:49.634Z,6.416321
2022-11-16T04:44:59.292Z,6.416321
2022-11-16T04:46:07.952Z,6.436462
2022-11-16T04:47:15.643Z,6.436462
2022-11-16T04:48:25.306Z,6.436462
2022-11-16T04:49:32.970Z,6.446533
2022-11-16T04:50:42.628Z,6.436462
2022-11-16T04:51:52.297Z,6.416321
2022-11-16T04:52:58.957Z,6.416321
2022-11-16T04:54:08.614Z,6.40625
2022-11-16T04:55:17.290Z,6.40625
2022-11-16T04:56:24.942Z,6.40625
2022-11-16T04:57:33.633Z,6.416321
2022-11-16T04:58:42.287Z,6.436462
2022-11-16T04:59:51.032Z,6.436462
2022-11-16T05:01:00.788Z,6.416321
2022-11-16T05:02:10.350Z,6.436462
2022-11-16T05:03:20.098Z,6.446533
2022-11-16T05:04:29.916Z,6.446533
2022-11-16T05:05:38.581Z,6.456604
2022-11-16T05:06:49.282Z,6.486816
2022-11-16T05:07:56.904Z,6.476746
2022-11-16T05:09:05.545Z,6.486816
2022-11-16T05:10:15.267Z,6.486816
2022-11-16T05:11:21.919Z,6.517029
2022-11-16T05:12:31.587Z,6.53717
2022-11-16T05:13:40.329Z,6.517029
2022-11-16T05:14:49.980Z,6.506958
2022-11-16T05:15:59.689Z,6.517029
2022-11-16T05:17:08.347Z,6.53717
2022-11-16T05:18:17.037Z,6.557312
2022-11-16T05:19:26.693Z,6.557312
2022-11-16T05:20:35.348Z,6.587524
2022-11-16T05:21:45.039Z,6.567383
2022-11-16T05:22:53.698Z,6.567383
2022-11-16T05:24:01.457Z,6.557312
2022-11-16T05:25:11.020Z,6.587524
2022-11-16T05:26:18.686Z,6.567383
2022-11-16T05:27:28.369Z,6.587524
2022-11-16T05:28:38.188Z,6.567383
2022-11-16T05:29:46.712Z,6.587524
2022-11-16T05:30:56.348Z,6.567383
2022-11-16T05:32:05.006Z,6.587524
2022-11-16T05:33:14.719Z,6.597595
2022-11-16T05:34:24.383Z,6.617737
2022-11-16T05:35:33.049Z,6.627808
2022-11-16T05:36:42.744Z,6.637878
2022-11-16T05:37:51.439Z,6.688232
2022-11-16T05:39:00.131Z,6.809082
2022-11-16T05:40:09.182Z,6.849365
2022-11-16T05:41:18.746Z,6.919861
2022-11-16T05:42:26.397Z,6.950073
2022-11-16T05:43:36.089Z,6.970215
2022-11-16T05:44:44.754Z,7.000427
2022-11-16T05:45:54.433Z,7.020569
2022-11-16T05:47:04.079Z,7.050781
2022-11-16T05:48:11.766Z,7.060852
2022-11-16T05:49:21.430Z,7.070923
2022-11-16T05:50:31.128Z,7.070923
2022-11-16T05:51:41.814Z,7.070923
2022-11-16T05:52:50.484Z,7.131348
2022-11-16T05:53:58.146Z,7.131348
2022-11-16T05:55:07.795Z,7.131348
2022-11-16T05:56:16.567Z,7.111206
2022-11-16T05:57:25.121Z,7.141418
2022-11-16T05:58:35.112Z,7.141418
2022-11-16T05:59:43.450Z,7.141418
2022-11-16T06:00:53.130Z,7.151489
2022-11-16T06:02:01.917Z,7.151489
2022-11-16T06:03:10.616Z,7.141418
2022-11-16T06:04:23.277Z,7.141418
2022-11-16T06:05:29.894Z,7.151489
2022-11-16T06:06:39.542Z,7.151489
2022-11-16T06:07:49.346Z,7.171631
2022-11-16T06:08:59.011Z,7.151489
2022-11-16T06:10:08.677Z,7.151489
2022-11-16T06:11:18.334Z,7.151489
2022-11-16T06:12:26.986Z,7.141418
2022-11-16T06:13:35.655Z,7.171631
2022-11-16T06:14:44.339Z,7.171631
2022-11-16T06:15:57.837Z,7.181702
2022-11-16T06:17:02.650Z,7.181702
2022-11-16T06:18:11.331Z,7.211914
2022-11-16T06:19:21.015Z,7.242126
2022-11-16T06:20:30.638Z,7.242126
2022-11-16T06:21:40.286Z,7.252197
2022-11-16T06:22:49.950Z,7.252197
2022-11-16T06:23:59.626Z,7.242126
2022-11-16T06:25:08.296Z,7.252197
2022-11-16T06:26:17.958Z,7.252197
2022-11-16T06:27:25.607Z,7.252197
2022-11-16T06:28:35.576Z,7.28241
2022-11-16T06:29:43.962Z,7.252197
2022-11-16T06:30:52.757Z,7.28241
2022-11-16T06:32:02.542Z,7.252197
2022-11-16T06:33:13.081Z,7.28241
2022-11-16T06:34:21.726Z,7.29248
2022-11-16T06:35:31.410Z,7.312622
2022-11-16T06:36:40.087Z,7.312622
2022-11-16T06:37:49.754Z,7.322693
2022-11-16T06:38:58.431Z,7.332764
2022-11-16T06:40:07.099Z,7.332764
2022-11-16T06:41:16.768Z,7.352905
2022-11-16T06:42:25.455Z,7.352905
2022-11-16T06:43:34.144Z,7.383118
2022-11-16T06:44:43.833Z,7.393188
2022-11-16T06:45:51.474Z,7.393188
2022-11-16T06:47:01.135Z,7.423401
2022-11-16T06:48:09.958Z,7.453613
2022-11-16T06:49:19.500Z,7.483826
2022-11-16T06:50:29.229Z,7.54425
2022-11-16T06:51:37.870Z,7.564392
2022-11-16T06:52:47.582Z,7.574463
2022-11-16T06:53:57.268Z,7.564392
2022-11-16T06:55:04.930Z,7.604675
2022-11-16T06:56:14.602Z,7.584534
2022-11-16T06:57:23.282Z,7.584534
2022-11-16T06:58:32.353Z,7.574463
2022-11-16T06:59:42.647Z,7.584534
2022-11-16T07:00:50.314Z,7.584534
2022-11-16T07:01:59.997Z,7.604675
2022-11-16T07:03:10.662Z,7.584534
2022-11-16T07:04:18.703Z,7.614746
2022-11-16T07:05:28.037Z,7.634888
2022-11-16T07:06:37.825Z,7.634888
2022-11-16T07:07:45.508Z,7.634888
2022-11-16T07:08:55.183Z,7.655029
2022-11-16T07:10:03.903Z,7.655029
2022-11-16T07:11:12.725Z,7.695312
2022-11-16T07:12:22.394Z,7.685242
2022-11-16T07:13:31.077Z,7.685242
2022-11-16T07:14:40.786Z,7.685242
2022-11-16T07:15:49.470Z,7.685242
2022-11-16T07:17:00.443Z,7.695312
2022-11-16T07:18:09.784Z,7.695312
2022-11-16T07:19:18.461Z,7.685242
2022-11-16T07:20:28.434Z,7.695312
2022-11-16T07:21:37.887Z,7.685242
2022-11-16T07:22:45.581Z,7.695312
2022-11-16T07:23:55.271Z,7.695312
2022-11-16T07:25:04.933Z,7.695312
2022-11-16T07:26:14.611Z,7.715454
2022-11-16T07:27:24.286Z,7.715454
2022-11-16T07:28:32.260Z,7.745667
2022-11-16T07:29:41.645Z,7.745667
2022-11-16T07:30:51.307Z,7.745667
2022-11-16T07:31:59.974Z,7.78595
2022-11-16T07:33:09.644Z,7.796021
2022-11-16T07:34:19.334Z,7.826233
2022-11-16T07:35:26.988Z,7.846375
2022-11-16T07:36:36.696Z,7.866516
2022-11-16T07:37:46.340Z,7.876587
2022-11-16T07:38:56.014Z,7.906799
2022-11-16T07:40:05.754Z,7.926941
2022-11-16T07:41:15.423Z,7.947083
2022-11-16T07:42:25.119Z,7.947083
2022-11-16T07:43:33.783Z,7.967224
2022-11-16T07:44:42.440Z,8.007507
2022-11-16T07:45:52.134Z,8.047791
2022-11-16T07:47:02.767Z,8.057861
2022-11-16T07:48:12.445Z,8.098145
2022-11-16T07:49:21.113Z,8.118286
2022-11-16T07:50:29.774Z,8.128357
2022-11-16T07:51:39.743Z,8.158569
2022-11-16T07:52:49.141Z,8.229065
2022-11-16T07:53:58.793Z,8.259277
2022-11-16T07:55:07.479Z,8.309631
2022-11-16T07:56:16.132Z,8.329773
2022-11-16T07:57:25.819Z,8.370056
2022-11-16T07:58:33.746Z,8.410339
2022-11-16T07:59:42.157Z,8.42041
2022-11-16T08:00:50.806Z,8.450623
2022-11-16T08:01:58.522Z,8.490906
2022-11-16T08:03:08.181Z,8.490906
2022-11-16T08:04:17.843Z,8.531189
2022-11-16T08:05:25.507Z,8.561401
2022-11-16T08:06:35.179Z,8.581543
2022-11-16T08:07:42.863Z,8.611755
2022-11-16T08:08:57.939Z,8.631897
2022-11-16T08:10:02.326Z,8.662109
2022-11-16T08:11:09.845Z,8.692322
2022-11-16T08:12:19.503Z,8.692322
2022-11-16T08:13:29.164Z,8.712463
2022-11-16T08:14:36.977Z,8.712463
2022-11-16T08:15:46.641Z,8.732605
2022-11-16T08:16:54.321Z,8.732605
2022-11-16T08:18:02.981Z,8.762817
2022-11-16T08:19:12.706Z,8.782959
2022-11-16T08:20:20.398Z,8.79303
2022-11-16T08:21:30.060Z,8.843384
2022-11-16T08:22:38.722Z,8.843384
2022-11-16T08:23:46.483Z,8.873596
2022-11-16T08:24:57.050Z,8.873596
2022-11-16T08:26:05.741Z,8.873596
2022-11-16T08:27:15.423Z,8.893738
2022-11-16T08:28:25.104Z,8.913879
2022-11-16T08:29:32.760Z,8.913879
2022-11-16T08:30:42.417Z,8.944092
2022-11-16T08:31:52.288Z,8.954163
2022-11-16T08:33:01.956Z,8.954163
2022-11-16T08:34:11.695Z,8.994446
2022-11-16T08:35:20.374Z,8.994446
2022-11-16T08:36:29.033Z,9.004517
2022-11-16T08:37:38.748Z,9.004517
2022-11-16T08:38:46.426Z,9.0448
2022-11-16T08:39:56.219Z,9.064941
2022-11-16T08:41:05.761Z,9.105225
2022-11-16T08:42:14.441Z,9.105225
2022-11-16T08:43:24.139Z,9.125366
2022-11-16T08:44:31.790Z,9.135437
2022-11-16T08:45:40.442Z,9.155579
2022-11-16T08:46:50.206Z,9.17572
2022-11-16T08:48:03.851Z,9.205933
2022-11-16T08:49:08.547Z,9.216003
2022-11-16T08:50:18.354Z,9.246216
2022-11-16T08:51:27.024Z,9.276428
2022-11-16T08:52:36.704Z,9.276428
2022-11-16T08:53:44.370Z,9.286499
2022-11-16T08:54:53.052Z,9.306641
2022-11-16T08:56:03.140Z,9.306641
2022-11-16T08:57:12.700Z,9.306641
2022-11-16T08:58:22.400Z,9.306641
2022-11-16T08:59:31.073Z,9.286499
2022-11-16T09:00:38.782Z,9.316711
2022-11-16T09:01:48.477Z,9.336853
2022-11-16T09:02:57.160Z,9.306641
2022-11-16T09:04:05.810Z,9.336853
2022-11-16T09:05:15.480Z,9.356995
2022-11-16T09:06:23.180Z,9.367065
2022-11-16T09:07:32.927Z,9.367065
2022-11-16T09:08:42.571Z,9.407349
2022-11-16T09:09:50.229Z,9.407349
2022-11-16T09:10:59.906Z,9.42749
2022-11-16T09:12:07.694Z,9.42749
2022-11-16T09:13:17.261Z,9.467773
2022-11-16T09:14:26.934Z,9.497986
2022-11-16T09:15:35.608Z,9.508057
2022-11-16T09:16:45.267Z,9.54834
2022-11-16T09:17:53.996Z,9.578552
2022-11-16T09:19:01.669Z,9.608765
2022-11-16T09:20:11.415Z,9.649048
2022-11-16T09:21:20.131Z,9.659119
2022-11-16T09:22:28.840Z,9.638977
2022-11-16T09:23:38.539Z,9.659119
2022-11-16T09:24:47.217Z,9.67926
2022-11-16T09:25:56.880Z,9.689331
2022-11-16T09:27:05.541Z,9.689331
2022-11-16T09:28:13.324Z,9.719543
2022-11-16T09:29:22.905Z,9.719543
2022-11-16T09:30:30.593Z,9.719543
2022-11-16T09:31:39.250Z,9.739685
2022-11-16T09:32:48.928Z,9.769897
2022-11-16T09:33:56.613Z,9.790039
2022-11-16T09:35:06.544Z,9.790039
2022-11-16T09:36:15.226Z,9.80011
2022-11-16T09:37:24.919Z,9.840393
2022-11-16T09:38:46.809Z,9.870605
2022-11-16T09:39:45.297Z,9.910889
2022-11-16T09:40:55.002Z,9.920959
2022-11-16T09:42:04.682Z,9.920959
2022-11-16T09:43:12.331Z,9.941101
2022-11-16T09:44:21.046Z,9.941101
2022-11-16T09:45:30.710Z,9.981384
2022-11-16T09:46:40.405Z,9.941101
2022-11-16T09:47:50.149Z,9.971313
2022-11-16T09:48:58.741Z,9.981384
2022-11-16T09:50:09.414Z,10.011597
2022-11-16T09:51:18.084Z,10.011597
2022-11-16T09:52:26.770Z,10.011597
2022-11-16T09:53:36.860Z,10.021667
2022-11-16T09:54:45.161Z,10.072021
2022-11-16T09:55:54.848Z,10.072021
2022-11-16T09:57:08.017Z,10.092163
2022-11-16T09:58:14.205Z,10.092163
2022-11-16T09:59:24.011Z,10.122375
2022-11-16T10:00:33.643Z,10.132446
2022-11-16T10:01:43.236Z,10.122375
2022-11-16T10:02:52.921Z,10.092163
2022-11-16T10:04:00.625Z,10.102234
2022-11-16T10:05:10.285Z,10.122375
2022-11-16T10:06:18.952Z,10.122375
2022-11-16T10:07:27.656Z,10.132446
2022-11-16T10:08:37.311Z,10.132446
2022-11-16T10:09:47.095Z,10.132446
2022-11-16T10:10:56.757Z,10.152588
2022-11-16T10:12:06.472Z,10.172729
2022-11-16T10:13:14.135Z,10.172729
2022-11-16T10:14:22.809Z,10.172729
2022-11-16T10:15:31.630Z,10.192871
2022-11-16T10:16:41.179Z,10.192871
2022-11-16T10:17:50.854Z,10.202942
2022-11-16T10:19:00.541Z,10.192871
2022-11-16T10:20:09.206Z,10.192871
2022-11-16T10:21:19.084Z,10.202942
2022-11-16T10:22:26.763Z,10.223083
2022-11-16T10:23:36.700Z,10.233154
2022-11-16T10:24:45.111Z,10.263367
2022-11-16T10:25:53.835Z,10.263367
2022-11-16T10:27:03.547Z,10.30365
2022-11-16T10:28:13.230Z,10.30365
2022-11-16T10:29:21.902Z,10.333862
2022-11-16T10:30:31.579Z,10.313721
2022-11-16T10:31:40.297Z,10.333862
2022-11-16T10:32:49.953Z,10.283508
2022-11-16T10:33:58.643Z,10.30365
2022-11-16T10:35:07.375Z,10.313721
2022-11-16T10:36:17.051Z,10.333862
2022-11-16T10:37:24.716Z,10.333862
2022-11-16T10:38:34.527Z,10.333862
2022-11-16T10:39:44.207Z,10.30365
2022-11-16T10:40:52.861Z,10.333862
2022-11-16T10:42:07.200Z,10.30365
2022-11-16T10:43:12.206Z,10.313721
2022-11-16T10:44:19.908Z,10.333862
2022-11-16T10:45:29.578Z,10.343933
2022-11-16T10:46:38.260Z,10.333862
2022-11-16T10:47:46.997Z,10.354004
2022-11-16T10:48:56.635Z,10.333862
2022-11-16T10:50:05.331Z,10.343933
2022-11-16T10:51:15.010Z,10.343933
2022-11-16T10:52:23.710Z,10.343933
2022-11-16T10:53:32.759Z,10.343933
2022-11-16T10:54:44.161Z,10.354004
2022-11-16T10:55:50.728Z,10.333862
2022-11-16T10:56:59.438Z,10.333862
2022-11-16T10:58:09.174Z,10.313721
2022-11-16T10:59:18.852Z,10.333862
2022-11-16T11:00:28.575Z,10.333862
2022-11-16T11:01:37.255Z,10.333862
2022-11-16T11:02:45.922Z,10.313721
2022-11-16T11:03:55.671Z,10.333862
2022-11-16T11:05:05.262Z,10.354004
2022-11-16T11:06:15.028Z,10.343933
2022-11-16T11:07:24.824Z,10.343933
2022-11-16T11:08:34.461Z,10.354004
2022-11-16T11:09:44.131Z,10.354004
2022-11-16T11:10:52.792Z,10.404358
2022-11-16T11:12:00.464Z,10.414429
2022-11-16T11:13:10.178Z,10.414429
2022-11-16T11:14:18.843Z,10.414429
2022-11-16T11:15:27.506Z,10.464783
2022-11-16T11:16:37.188Z,10.484924
2022-11-16T11:17:45.868Z,10.494995
2022-11-16T11:18:55.549Z,10.525208
2022-11-16T11:20:04.336Z,10.565491
2022-11-16T11:21:13.948Z,10.595703
2022-11-16T11:22:23.678Z,10.595703
2022-11-16T11:23:32.631Z,10.605774
2022-11-16T11:24:45.258Z,10.635986
2022-11-16T11:25:50.803Z,10.635986
2022-11-16T11:26:58.460Z,10.666199
2022-11-16T11:28:08.124Z,10.68634
2022-11-16T11:29:16.865Z,10.706482
2022-11-16T11:30:25.551Z,10.736694
2022-11-16T11:31:35.245Z,10.716553
2022-11-16T11:32:43.922Z,10.746765
2022-11-16T11:33:52.573Z,10.787048
2022-11-16T11:35:02.267Z,10.787048
2022-11-16T11:36:10.077Z,10.817261
2022-11-16T11:37:19.629Z,10.817261
2022-11-16T11:38:28.282Z,10.867615
2022-11-16T11:39:35.991Z,10.857544
2022-11-16T11:40:45.622Z,10.897827
2022-11-16T11:41:55.334Z,10.92804
2022-11-16T11:43:03.975Z,10.93811
2022-11-16T11:44:13.650Z,10.968323
2022-11-16T11:45:22.358Z,10.988464
2022-11-16T11:46:56.377Z,10.968323
2022-11-16T11:47:59.531Z,10.958252
2022-11-16T11:48:52.352Z,10.958252
2022-11-16T11:50:02.022Z,10.968323
2022-11-16T11:51:09.683Z,10.988464
2022-11-16T11:52:19.463Z,10.998535
2022-11-16T11:53:29.100Z,10.988464
2022-11-16T11:54:41.725Z,10.998535
2022-11-16T11:55:47.477Z,10.998535
2022-11-16T11:56:55.140Z,11.018677
2022-11-16T11:58:04.887Z,11.048889
2022-11-16T11:59:13.570Z,11.069031
2022-11-16T12:00:22.241Z,11.048889
2022-11-16T12:01:31.911Z,11.079102
2022-11-16T12:02:39.595Z,11.119385
2022-11-16T12:03:48.246Z,11.169739
2022-11-16T12:04:56.947Z,11.17981
2022-11-16T12:06:04.612Z,11.220093
2022-11-16T12:07:14.316Z,11.260376
2022-11-16T12:08:24.094Z,11.260376
2022-11-16T12:09:33.671Z,11.290588
2022-11-16T12:10:43.357Z,11.361084
2022-11-16T12:11:52.014Z,11.371155
2022-11-16T12:13:01.752Z,11.401367
2022-11-16T12:14:10.451Z,11.451721
2022-11-16T12:15:18.114Z,11.471863
2022-11-16T12:16:27.795Z,11.451721
2022-11-16T12:17:36.459Z,11.471863
2022-11-16T12:18:46.121Z,11.451721
2022-11-16T12:19:55.797Z,11.451721
2022-11-16T12:21:03.463Z,11.481934
2022-11-16T12:22:12.248Z,11.481934
2022-11-16T12:23:21.913Z,11.502075
2022-11-16T12:24:29.618Z,11.481934
2022-11-16T12:25:39.261Z,11.451721
2022-11-16T12:26:48.982Z,11.471863
2022-11-16T12:27:56.714Z,11.451721
2022-11-16T12:29:06.380Z,11.451721
2022-11-16T12:30:15.066Z,11.43158
2022-11-16T12:31:23.735Z,11.401367
2022-11-16T12:32:33.404Z,11.411438
2022-11-16T12:33:41.110Z,11.43158
2022-11-16T12:34:50.785Z,11.401367
2022-11-16T12:35:59.454Z,11.401367
2022-11-16T12:37:07.110Z,11.351013
2022-11-16T12:38:19.501Z,11.361084
2022-11-16T12:39:27.434Z,11.330872
2022-11-16T12:40:36.203Z,11.320801
2022-11-16T12:41:45.757Z,11.320801
2022-11-16T12:42:53.426Z,11.300659
2022-11-16T12:44:03.095Z,11.300659
2022-11-16T12:45:11.899Z,11.320801
2022-11-16T12:46:19.567Z,11.300659
2022-11-16T12:47:29.240Z,11.270447
2022-11-16T12:48:36.922Z,11.300659
2022-11-16T12:49:44.577Z,11.290588
2022-11-16T12:50:54.357Z,11.260376
2022-11-16T12:52:03.033Z,11.300659
2022-11-16T12:53:12.687Z,11.290588
2022-11-16T12:54:21.397Z,11.320801
2022-11-16T12:55:30.112Z,11.330872
2022-11-16T12:56:42.347Z,11.361084
2022-11-16T12:57:50.444Z,11.371155
2022-11-16T12:58:59.107Z,11.411438
2022-11-16T13:00:08.774Z,11.401367
2022-11-16T13:01:18.488Z,11.401367
2022-11-16T13:02:28.148Z,11.44165
2022-11-16T13:03:38.128Z,11.44165
2022-11-16T13:04:46.514Z,11.451721
2022-11-16T13:05:56.187Z,11.471863
2022-11-16T13:07:07.957Z,11.481934
2022-11-16T13:08:13.585Z,11.512146
2022-11-16T13:09:23.247Z,11.522217
2022-11-16T13:10:31.923Z,11.592712
2022-11-16T13:11:41.622Z,11.632996
2022-11-16T13:12:55.686Z,11.663208
2022-11-16T13:14:02.947Z,11.723633
2022-11-16T13:15:12.623Z,11.834412
2022-11-16T13:16:21.301Z,11.914978
2022-11-16T13:17:29.977Z,12.015686
2022-11-16T13:18:39.629Z,12.086182
2022-11-16T13:19:48.326Z,12.277527
2022-11-16T13:20:58.009Z,12.549438
2022-11-16T13:22:06.710Z,12.932129
2022-11-16T13:23:14.369Z,13.284607
2022-11-16T13:24:23.029Z,13.556519
2022-11-16T13:25:32.749Z,13.737793
2022-11-16T13:26:41.418Z,13.919067